createdAt,value
2022-09-14T00:01:40.436Z,6.00
2022-09-14T00:04:14.761Z,6.00
2022-09-14T00:06:43.542Z,6.50
2022-09-14T00:09:24.323Z,7.10
2022-09-14T00:11:52.823Z,7.10
2022-09-14T00:14:20.519Z,7.00
2022-09-14T00:16:48.828Z,7.70
2022-09-14T00:19:25.828Z,6.80
2022-09-14T00:21:58.038Z,6.90
2022-09-14T00:24:30.065Z,6.30
2022-09-14T00:26:57.651Z,7.10
2022-09-14T00:29:25.250Z,6.40
2022-09-14T00:31:52.962Z,6.00
2022-09-14T00:34:21.404Z,6.60
2022-09-14T00:36:51.737Z,5.80
2022-09-14T00:39:23.708Z,5.80
2022-09-14T00:41:53.087Z,6.10
2022-09-14T00:44:20.946Z,6.50
2022-09-14T00:46:53.320Z,6.00
2022-09-14T00:49:32.460Z,6.10
2022-09-14T00:52:17.629Z,5.60
2022-09-14T00:54:54.251Z,5.50
2022-09-14T00:57:23.628Z,6.60
2022-09-14T00:59:53.464Z,6.20
2022-09-14T01:02:24.179Z,5.60
2022-09-14T01:04:52.699Z,5.70
2022-09-14T01:07:48.261Z,6.00
2022-09-14T01:10:26.678Z,5.10
2022-09-14T01:13:08.423Z,5.30
2022-09-14T01:16:02.464Z,4.70
2022-09-14T01:18:39.126Z,5.60
2022-09-14T01:21:23.661Z,5.30
2022-09-14T01:24:07.223Z,5.90
2022-09-14T01:26:59.191Z,5.70
2022-09-14T01:29:42.434Z,5.60
2022-09-14T01:32:21.540Z,5.70
2022-09-14T01:35:05.950Z,5.40
2022-09-14T01:37:53.884Z,5.20
2022-09-14T01:40:33.355Z,5.60
2022-09-14T01:43:11.936Z,5.60
2022-09-14T01:45:46.525Z,5.40
2022-09-14T01:48:21.150Z,5.30
2022-09-14T01:50:56.772Z,5.60
2022-09-14T01:53:38.340Z,5.10
2022-09-14T01:56:16.068Z,5.60
2022-09-14T01:59:30.311Z,5.00
2022-09-14T02:02:07.359Z,5.40
2022-09-14T02:04:54.418Z,5.50
2022-09-14T02:07:21.996Z,4.60
2022-09-14T02:09:52.672Z,5.40
2022-09-14T02:12:22.615Z,5.00
2022-09-14T02:14:53.955Z,5.90
2022-09-14T02:17:22.620Z,5.10
2022-09-14T02:19:57.688Z,5.10
2022-09-14T02:22:28.108Z,4.50
2022-09-14T02:24:56.152Z,4.60
2022-09-14T02:27:24.994Z,5.00
2022-09-14T02:29:53.243Z,5.10
2022-09-14T02:32:40.795Z,5.60
2022-09-14T02:35:22.463Z,4.90
2022-09-14T02:38:05.996Z,5.50
2022-09-14T02:40:38.299Z,4.80
2022-09-14T02:43:25.736Z,4.70
2022-09-14T02:46:11.792Z,5.00
2022-09-14T02:49:40.011Z,5.60
2022-09-14T02:52:18.500Z,5.30
2022-09-14T02:55:23.079Z,5.60
2022-09-14T02:58:07.640Z,5.60
2022-09-14T03:00:41.769Z,6.00
2022-09-14T03:03:13.683Z,6.10
2022-09-14T03:05:42.056Z,6.40
2022-09-14T03:08:10.847Z,6.20
2022-09-14T03:10:42.783Z,6.80
2022-09-14T03:13:11.670Z,6.80
2022-09-14T03:15:39.641Z,6.90
2022-09-14T03:18:12.322Z,7.90
2022-09-14T03:20:43.238Z,8.00
2022-09-14T03:23:12.679Z,7.40
2022-09-14T03:25:44.788Z,7.00
2022-09-14T03:28:13.086Z,7.10
2022-09-14T03:30:41.143Z,6.30
2022-09-14T03:33:08.841Z,6.40
2022-09-14T03:35:36.467Z,5.90
2022-09-14T03:38:04.152Z,6.50
2022-09-14T03:40:31.822Z,6.70
2022-09-14T03:42:59.383Z,7.00
2022-09-14T03:45:26.967Z,6.40
2022-09-14T03:47:54.876Z,6.10
2022-09-14T03:50:22.494Z,6.30
2022-09-14T03:52:50.089Z,6.00
2022-09-14T03:55:19.242Z,6.60
2022-09-14T03:57:46.742Z,6.40
2022-09-14T04:00:14.739Z,6.10
2022-09-14T04:02:42.418Z,6.30
2022-09-14T04:05:10.568Z,6.80
2022-09-14T04:07:38.246Z,6.30
2022-09-14T04:10:07.288Z,6.10
2022-09-14T04:12:38.012Z,6.10
2022-09-14T04:15:07.672Z,6.30
2022-09-14T04:17:35.364Z,6.00
2022-09-14T04:20:04.504Z,5.60
2022-09-14T04:22:33.461Z,5.50
2022-09-14T04:25:01.166Z,5.60
2022-09-14T04:27:30.722Z,6.30
2022-09-14T04:29:58.519Z,6.10
2022-09-14T04:32:27.320Z,6.60
2022-09-14T04:34:57.440Z,6.10
2022-09-14T04:37:25.015Z,6.80
2022-09-14T04:39:52.861Z,6.90
2022-09-14T04:42:20.500Z,6.70
2022-09-14T04:44:48.005Z,6.10
2022-09-14T04:47:15.708Z,6.80
2022-09-14T04:49:43.294Z,6.80
2022-09-14T04:52:10.888Z,8.40
2022-09-14T04:54:38.491Z,7.60
2022-09-14T04:57:06.027Z,7.40
2022-09-14T04:59:34.559Z,7.20
2022-09-14T05:02:02.137Z,7.60
2022-09-14T05:04:29.724Z,7.70
2022-09-14T05:06:57.469Z,7.50
2022-09-14T05:09:25.093Z,8.00
2022-09-14T05:11:52.957Z,7.70
2022-09-14T05:14:20.583Z,7.90
2022-09-14T05:16:48.472Z,7.70
2022-09-14T05:19:18.357Z,7.40
2022-09-14T05:21:46.784Z,7.50
2022-09-14T05:24:18.560Z,8.50
2022-09-14T05:26:46.765Z,8.30
2022-09-14T05:29:17.450Z,9.40
2022-09-14T05:31:46.353Z,7.30
2022-09-14T05:34:16.214Z,7.50
2022-09-14T05:36:44.006Z,7.00
2022-09-14T05:39:11.716Z,7.20
2022-09-14T05:41:39.329Z,7.40
2022-09-14T05:44:07.352Z,6.40
2022-09-14T05:46:35.179Z,7.70
2022-09-14T05:49:03.405Z,6.50
2022-09-14T05:51:31.044Z,6.40
2022-09-14T05:53:59.404Z,6.60
2022-09-14T05:56:31.719Z,6.40
2022-09-14T05:59:00.477Z,6.20
2022-09-14T06:01:32.737Z,6.10
2022-09-14T06:04:02.438Z,6.40
2022-09-14T06:06:32.783Z,7.30
2022-09-14T06:09:01.012Z,5.80
2022-09-14T06:11:33.363Z,6.20
2022-09-14T06:14:01.276Z,6.30
2022-09-14T06:16:29.755Z,6.40
2022-09-14T06:18:59.396Z,6.90
2022-09-14T06:21:35.069Z,6.50
2022-09-14T06:24:03.843Z,6.20
2022-09-14T06:26:32.448Z,6.40
2022-09-14T06:29:00.543Z,6.00
2022-09-14T06:31:28.403Z,6.30
2022-09-14T06:33:56.088Z,6.40
2022-09-14T06:36:26.821Z,6.30
2022-09-14T06:38:55.495Z,6.70
2022-09-14T06:41:30.464Z,6.90
2022-09-14T06:44:01.685Z,6.50
2022-09-14T06:46:33.537Z,6.60
2022-09-14T06:49:10.356Z,7.90
2022-09-14T06:51:42.230Z,7.40
2022-09-14T06:54:13.416Z,7.00
2022-09-14T06:56:42.981Z,7.50
2022-09-14T06:59:13.922Z,7.40
2022-09-14T07:01:45.492Z,6.90
2022-09-14T07:04:14.647Z,7.10
2022-09-14T07:06:49.573Z,6.40
2022-09-14T07:09:19.619Z,7.50
2022-09-14T07:11:47.680Z,8.10
2022-09-14T07:14:15.220Z,8.00
2022-09-14T07:16:42.790Z,7.20
2022-09-14T07:19:14.228Z,6.50
2022-09-14T07:21:43.518Z,6.80
2022-09-14T07:24:14.915Z,6.20
2022-09-14T07:26:43.243Z,6.50
2022-09-14T07:29:18.683Z,6.70
2022-09-14T07:31:54.111Z,6.90
2022-09-14T07:34:21.855Z,7.20
2022-09-14T07:36:49.540Z,6.30
2022-09-14T07:39:18.058Z,7.30
2022-09-14T07:41:46.074Z,7.40
2022-09-14T07:44:17.412Z,8.10
2022-09-14T07:46:46.965Z,6.90
2022-09-14T07:49:17.118Z,6.80
2022-09-14T07:51:45.453Z,7.40
2022-09-14T07:54:16.433Z,7.00
2022-09-14T07:56:45.012Z,7.30
2022-09-14T07:59:35.035Z,6.90
2022-09-14T08:02:02.884Z,6.20
2022-09-14T08:04:30.550Z,7.20
2022-09-14T08:06:59.060Z,7.00
2022-09-14T08:09:26.804Z,6.90
2022-09-14T08:11:54.451Z,6.20
2022-09-14T08:14:22.179Z,6.10
2022-09-14T08:16:50.133Z,5.90
2022-09-14T08:19:21.012Z,5.60
2022-09-14T08:21:49.179Z,6.00
2022-09-14T08:24:20.092Z,6.40
2022-09-14T08:26:49.464Z,5.10
2022-09-14T08:29:19.484Z,5.00
2022-09-14T08:31:48.871Z,6.00
2022-09-14T08:34:17.438Z,6.00
2022-09-14T08:36:47.321Z,6.10
2022-09-14T08:39:17.194Z,5.80
2022-09-14T08:41:56.884Z,5.40
2022-09-14T08:44:30.977Z,5.40
2022-09-14T08:47:29.030Z,5.60
2022-09-14T08:50:20.269Z,5.40
2022-09-14T08:52:53.080Z,5.10
2022-09-14T08:55:47.816Z,4.90
2022-09-14T08:58:42.667Z,5.50
2022-09-14T09:01:38.293Z,5.60
2022-09-14T09:05:02.068Z,6.30
2022-09-14T09:07:50.812Z,5.60
2022-09-14T09:10:20.010Z,5.40
2022-09-14T09:12:54.157Z,5.20
2022-09-14T09:15:31.737Z,6.10
2022-09-14T09:18:13.368Z,5.70
2022-09-14T09:20:48.519Z,5.80
2022-09-14T09:23:25.440Z,5.30
2022-09-14T09:26:00.553Z,5.40
2022-09-14T09:28:29.972Z,6.40
2022-09-14T09:31:12.685Z,6.90
2022-09-14T09:33:45.747Z,6.00
2022-09-14T09:36:15.193Z,6.10
2022-09-14T09:38:42.940Z,5.90
2022-09-14T09:41:26.497Z,5.40
2022-09-14T09:44:06.857Z,6.20
2022-09-14T09:46:39.349Z,5.10
2022-09-14T09:49:29.795Z,5.40
2022-09-14T09:52:10.977Z,6.10
2022-09-14T09:54:42.300Z,5.80
2022-09-14T09:57:29.770Z,5.60
2022-09-14T10:00:24.472Z,5.30
2022-09-14T10:02:54.893Z,5.30
2022-09-14T10:05:34.693Z,5.70
2022-09-14T10:08:11.255Z,4.90
2022-09-14T10:10:44.927Z,5.60
2022-09-14T10:13:37.703Z,5.20
2022-09-14T10:16:17.361Z,5.20
2022-09-14T10:18:49.678Z,5.90
2022-09-14T10:21:21.090Z,6.00
2022-09-14T10:24:17.583Z,5.20
2022-09-14T10:26:45.240Z,5.80
2022-09-14T10:29:30.417Z,6.10
2022-09-14T10:32:07.378Z,6.10
2022-09-14T10:34:35.395Z,5.50
2022-09-14T10:37:51.048Z,5.30
2022-09-14T10:40:31.071Z,6.30
2022-09-14T10:43:12.153Z,5.70
2022-09-14T10:45:50.268Z,5.80
2022-09-14T10:48:36.092Z,6.50
2022-09-14T10:51:55.176Z,6.30
2022-09-14T10:55:19.962Z,6.50
2022-09-14T10:58:24.695Z,6.50
2022-09-14T11:01:28.688Z,6.10
2022-09-14T11:04:13.437Z,6.60
2022-09-14T11:07:08.248Z,6.60
2022-09-14T11:10:25.799Z,6.40
2022-09-14T11:13:20.296Z,6.20
2022-09-14T11:16:21.563Z,6.00
2022-09-14T11:19:09.821Z,6.00
2022-09-14T11:21:53.821Z,6.60
2022-09-14T11:24:33.230Z,6.70
2022-09-14T11:27:15.704Z,5.90
2022-09-14T11:29:53.914Z,5.40
2022-09-14T11:32:39.424Z,5.60
2022-09-14T11:35:16.184Z,6.10
2022-09-14T11:38:00.908Z,5.80
2022-09-14T11:40:41.638Z,6.40
2022-09-14T11:43:34.042Z,6.10
2022-09-14T11:46:15.504Z,7.20
2022-09-14T11:49:05.415Z,8.30
2022-09-14T11:51:38.345Z,8.90
2022-09-14T11:54:24.136Z,9.40
2022-09-14T11:57:03.730Z,8.80
2022-09-14T11:59:54.336Z,10.50
2022-09-14T12:02:28.007Z,9.30
2022-09-14T12:05:04.654Z,9.30
2022-09-14T12:07:45.587Z,9.80
2022-09-14T12:10:16.157Z,8.80
2022-09-14T12:13:05.888Z,9.60
2022-09-14T12:15:37.367Z,9.60
2022-09-14T12:18:08.103Z,10.50
2022-09-14T12:20:41.904Z,9.10
2022-09-14T12:23:28.942Z,10.80
2022-09-14T12:26:12.200Z,9.90
2022-09-14T12:28:59.148Z,9.60
2022-09-14T12:32:00.251Z,9.20
2022-09-14T12:34:33.634Z,9.60
2022-09-14T12:37:30.442Z,9.40
2022-09-14T12:40:34.348Z,8.40
2022-09-14T12:43:34.145Z,9.10
2022-09-14T12:46:19.880Z,9.00
2022-09-14T12:48:47.702Z,8.90
2022-09-14T12:51:29.214Z,8.10
2022-09-14T12:54:09.100Z,6.80
2022-09-14T12:56:37.047Z,7.10
2022-09-14T12:59:23.025Z,5.90
2022-09-14T13:02:43.379Z,5.90
2022-09-14T13:05:20.535Z,5.60
2022-09-14T13:07:48.555Z,5.40
2022-09-14T13:10:28.719Z,6.00
2022-09-14T13:12:56.814Z,6.10
2022-09-14T13:15:50.078Z,6.60
2022-09-14T13:18:17.792Z,10.00
2022-09-14T13:20:55.436Z,9.00
2022-09-14T13:23:39.285Z,6.60
2022-09-14T13:26:24.196Z,6.40
2022-09-14T13:28:55.257Z,5.10
2022-09-14T13:31:45.244Z,5.80
2022-09-14T13:34:26.643Z,5.20
2022-09-14T13:36:57.361Z,5.00
2022-09-14T13:39:33.090Z,5.40
2022-09-14T13:42:03.286Z,5.20
2022-09-14T13:44:48.059Z,5.20
2022-09-14T13:47:21.620Z,5.20
2022-09-14T13:49:53.197Z,5.70
2022-09-14T13:52:30.991Z,6.90
2022-09-14T13:55:49.227Z,6.40
2022-09-14T13:58:19.482Z,7.10
2022-09-14T14:01:00.081Z,8.30
2022-09-14T14:03:41.560Z,7.20
2022-09-14T14:06:20.844Z,7.10
2022-09-14T14:09:01.284Z,7.30
2022-09-14T14:11:35.648Z,7.00
2022-09-14T14:14:31.071Z,8.00
2022-09-14T14:17:30.400Z,7.20
2022-09-14T14:20:21.124Z,6.90
2022-09-14T14:22:57.777Z,6.90
2022-09-14T14:25:43.334Z,7.00
2022-09-14T14:28:26.211Z,6.50
2022-09-14T14:30:56.403Z,7.00
2022-09-14T14:33:25.455Z,6.40
2022-09-14T14:35:56.423Z,6.20
2022-09-14T14:38:25.657Z,6.50
2022-09-14T14:40:55.869Z,6.70
2022-09-14T14:43:26.980Z,6.30
2022-09-14T14:45:59.661Z,5.80
2022-09-14T14:48:29.667Z,6.60
2022-09-14T14:50:57.252Z,6.10
2022-09-14T14:53:26.224Z,6.30
2022-09-14T14:55:53.805Z,5.60
2022-09-14T14:58:23.623Z,5.90
2022-09-14T15:00:52.104Z,6.00
2022-09-14T15:03:19.812Z,6.40
2022-09-14T15:05:49.390Z,6.10
2022-09-14T15:08:20.136Z,6.80
2022-09-14T15:10:49.397Z,6.20
2022-09-14T15:13:16.980Z,6.90
2022-09-14T15:15:45.025Z,6.20
2022-09-14T15:18:12.548Z,6.20
2022-09-14T15:20:41.178Z,7.50
2022-09-14T15:23:12.688Z,7.40
2022-09-14T15:25:40.270Z,6.50
2022-09-14T15:28:07.892Z,7.70
2022-09-14T15:30:35.465Z,6.90
2022-09-14T15:33:03.075Z,6.20
2022-09-14T15:35:30.589Z,7.30
2022-09-14T15:37:58.176Z,7.10
2022-09-14T15:40:25.889Z,7.00
2022-09-14T15:42:53.877Z,6.50
2022-09-14T15:45:21.584Z,6.30
2022-09-14T15:47:49.278Z,6.30
2022-09-14T15:50:17.077Z,7.00
2022-09-14T15:52:45.182Z,7.20
2022-09-14T15:55:13.025Z,7.40
2022-09-14T15:57:40.571Z,6.90
2022-09-14T16:00:11.622Z,7.30
2022-09-14T16:02:39.329Z,6.80
2022-09-14T16:05:07.585Z,6.20
2022-09-14T16:07:35.109Z,6.30
2022-09-14T16:10:02.753Z,6.40
2022-09-14T16:12:30.435Z,6.00
2022-09-14T16:14:58.178Z,6.80
2022-09-14T16:17:25.848Z,6.20
2022-09-14T16:19:53.452Z,5.80
2022-09-14T16:22:21.769Z,5.50
2022-09-14T16:24:49.345Z,5.80
2022-09-14T16:27:17.430Z,6.30
2022-09-14T16:29:45.335Z,5.80
2022-09-14T16:32:13.006Z,6.10
2022-09-14T16:34:40.657Z,6.20
2022-09-14T16:37:08.457Z,6.30
2022-09-14T16:39:36.201Z,6.40
2022-09-14T16:42:04.073Z,6.40
2022-09-14T16:44:32.456Z,6.10
2022-09-14T16:47:00.175Z,6.60
2022-09-14T16:49:28.587Z,5.80
2022-09-14T16:52:00.703Z,6.40
2022-09-14T16:54:29.996Z,6.30
2022-09-14T16:56:59.381Z,6.20
2022-09-14T16:59:27.962Z,7.00
2022-09-14T17:01:55.904Z,6.80
2022-09-14T17:04:24.847Z,6.70
2022-09-14T17:06:53.389Z,6.80
2022-09-14T17:09:26.010Z,7.20
2022-09-14T17:11:56.077Z,6.30
2022-09-14T17:14:28.495Z,6.80
2022-09-14T17:16:58.793Z,6.60
2022-09-14T17:19:27.660Z,7.60
2022-09-14T17:21:55.956Z,7.50
2022-09-14T17:24:24.224Z,7.10
2022-09-14T17:26:51.772Z,7.70
2022-09-14T17:29:19.513Z,7.70
2022-09-14T17:31:47.298Z,7.40
2022-09-14T17:34:17.202Z,8.10
2022-09-14T17:36:46.099Z,8.00
2022-09-14T17:39:15.603Z,7.10
2022-09-14T17:41:44.941Z,7.60
2022-09-14T17:44:14.589Z,5.90
2022-09-14T17:46:53.103Z,6.10
2022-09-14T17:49:23.040Z,6.80
2022-09-14T17:51:51.791Z,7.30
2022-09-14T17:54:21.284Z,6.40
2022-09-14T17:56:49.818Z,6.00
2022-09-14T17:59:20.765Z,6.10
2022-09-14T18:01:49.989Z,5.90
2022-09-14T18:04:18.340Z,6.40
2022-09-14T18:06:49.808Z,5.40
2022-09-14T18:09:24.334Z,6.00
2022-09-14T18:11:57.155Z,6.20
2022-09-14T18:14:26.164Z,6.00
2022-09-14T18:16:53.965Z,6.30
2022-09-14T18:19:21.888Z,6.70
2022-09-14T18:21:52.599Z,5.40
2022-09-14T18:24:21.142Z,6.10
2022-09-14T18:26:49.185Z,6.30
2022-09-14T18:29:21.204Z,6.30
2022-09-14T18:31:51.107Z,5.80
2022-09-14T18:34:21.345Z,5.40
2022-09-14T18:36:52.064Z,5.50
2022-09-14T18:39:19.870Z,4.90
2022-09-14T18:41:51.546Z,5.30
2022-09-14T18:44:21.081Z,5.30
2022-09-14T18:46:51.491Z,5.60
2022-09-14T18:49:19.813Z,4.70
2022-09-14T18:51:47.471Z,3.90
2022-09-14T18:54:15.159Z,5.00
2022-09-14T18:56:42.773Z,4.60
2022-09-14T18:59:14.501Z,4.50
2022-09-14T19:01:43.615Z,4.60
2022-09-14T19:04:12.285Z,5.00
2022-09-14T19:06:41.627Z,4.70
2022-09-14T19:09:10.226Z,3.80
2022-09-14T19:11:37.884Z,3.30
2022-09-14T19:14:11.159Z,3.80
2022-09-14T19:16:41.310Z,3.80
2022-09-14T19:19:13.249Z,4.30
2022-09-14T19:21:42.852Z,4.00
2022-09-14T19:24:14.786Z,4.70
2022-09-14T19:26:50.724Z,5.80
2022-09-14T19:29:23.636Z,6.20
2022-09-14T19:31:53.393Z,5.70
2022-09-14T19:34:24.028Z,3.90
2022-09-14T19:36:53.882Z,3.30
2022-09-14T19:39:23.793Z,3.50
2022-09-14T19:41:51.953Z,3.00
2022-09-14T19:44:19.978Z,2.90
2022-09-14T19:46:47.640Z,2.70
2022-09-14T19:49:19.817Z,2.40
2022-09-14T19:51:48.907Z,3.00
2022-09-14T19:54:17.292Z,2.40
2022-09-14T19:56:46.227Z,3.00
2022-09-14T19:59:15.239Z,1.90
2022-09-14T20:01:44.252Z,2.20
2022-09-14T20:04:13.313Z,2.20
2022-09-14T20:06:43.666Z,2.10
2022-09-14T20:09:21.134Z,2.50
2022-09-14T20:11:52.587Z,1.80
2022-09-14T20:14:24.553Z,2.20
2022-09-14T20:16:58.589Z,1.90
2022-09-14T20:19:29.337Z,2.20
2022-09-14T20:21:57.531Z,2.00
2022-09-14T20:24:30.959Z,2.30
2022-09-14T20:27:00.879Z,2.60
2022-09-14T20:29:34.043Z,2.20
2022-09-14T20:32:04.595Z,2.60
2022-09-14T20:34:32.282Z,2.20
2022-09-14T20:37:00.863Z,2.10
2022-09-14T20:39:29.575Z,2.70
2022-09-14T20:41:57.271Z,2.50
2022-09-14T20:44:24.851Z,2.50
2022-09-14T20:46:52.552Z,2.50
2022-09-14T20:49:23.422Z,2.70
2022-09-14T20:51:52.736Z,2.10
2022-09-14T20:54:20.980Z,2.60
2022-09-14T20:56:48.873Z,2.30
2022-09-14T21:02:14.936Z,2.30
2022-09-14T21:04:43.757Z,2.90
2022-09-14T21:07:11.734Z,2.20
2022-09-14T21:09:39.950Z,1.90
2022-09-14T21:12:11.629Z,2.60
2022-09-14T21:14:42.029Z,2.50
2022-09-14T21:17:09.680Z,2.90
2022-09-14T21:19:38.306Z,2.90
2022-09-14T21:22:06.373Z,3.20
2022-09-14T21:24:35.160Z,2.80
2022-09-14T21:27:02.823Z,3.00
2022-09-14T21:29:31.193Z,3.10
2022-09-14T21:31:58.870Z,2.80
2022-09-14T21:34:26.624Z,2.30
2022-09-14T21:36:54.333Z,2.70
2022-09-14T21:39:27.013Z,2.60
2022-09-14T21:42:02.161Z,2.50
2022-09-14T21:44:35.470Z,2.50
2022-09-14T21:47:04.816Z,2.30
2022-09-14T21:49:32.523Z,2.50
2022-09-14T21:52:00.247Z,2.50
2022-09-14T21:54:28.095Z,2.30
2022-09-14T21:56:56.101Z,2.10
2022-09-14T21:59:24.147Z,2.40
2022-09-14T22:01:51.902Z,2.30
2022-09-14T22:04:26.196Z,2.60
2022-09-14T22:06:55.208Z,2.70
2022-09-14T22:09:26.634Z,2.60
2022-09-14T22:11:56.262Z,2.70
2022-09-14T22:14:29.746Z,2.70
2022-09-14T22:16:57.592Z,2.60
2022-09-14T22:19:31.467Z,2.70
2022-09-14T22:21:59.495Z,3.10
2022-09-14T22:24:37.092Z,3.20
2022-09-14T22:27:09.064Z,3.00
2022-09-14T22:29:40.593Z,3.00
2022-09-14T22:32:12.178Z,2.50
2022-09-14T22:34:41.657Z,3.60
2022-09-14T22:37:09.771Z,3.20
2022-09-14T22:39:37.406Z,3.40
2022-09-14T22:42:05.854Z,4.20
2022-09-14T22:44:33.439Z,3.30
2022-09-14T22:47:00.966Z,3.10
2022-09-14T22:49:28.549Z,2.90
2022-09-14T22:51:56.181Z,3.00
2022-09-14T22:54:23.800Z,3.10
2022-09-14T22:56:51.372Z,2.90
2022-09-14T22:59:18.885Z,3.00
2022-09-14T23:01:46.606Z,2.90
2022-09-14T23:04:14.777Z,3.20
2022-09-14T23:06:47.290Z,2.90
2022-09-14T23:09:20.335Z,2.90
2022-09-14T23:11:49.266Z,2.80
2022-09-14T23:14:17.513Z,3.20
2022-09-14T23:16:45.790Z,2.90
2022-09-14T23:19:17.728Z,3.10
2022-09-14T23:21:46.266Z,3.10
2022-09-14T23:24:14.170Z,3.60
2022-09-14T23:26:42.281Z,3.50
2022-09-14T23:29:16.328Z,3.20
2022-09-14T23:31:44.737Z,3.50
2022-09-14T23:34:12.571Z,3.60
2022-09-14T23:36:40.688Z,3.80
2022-09-14T23:39:08.640Z,3.20
2022-09-14T23:41:36.379Z,3.40
2022-09-14T23:44:04.114Z,3.10
2022-09-14T23:46:31.849Z,3.30
2022-09-14T23:48:59.348Z,3.50
2022-09-14T23:51:27.165Z,3.50
2022-09-14T23:53:54.676Z,3.70
2022-09-14T23:56:22.423Z,4.20
2022-09-14T23:58:50.230Z,4.30
